West Palm Beach, FL (33401)

9:35 AM EDT on August 25, 2016 (GMT -0400)
Palm Beach, FL | | Change Station

Elev 8 ft 26.71 °N, 80.04 °W | Updated 0 second ago

Mostly Cloudy
Mostly Cloudy
84.7 °F
Feels Like 98 °F
N
0.0
Wind Variable Wind from NE
Gusts 4.0 mph

Today
High -- | Low -- °F
--% Chance of Precip.
Yesterday
High -- | Low -- °F
Precip. -- in
Pressure 30.00 in
Visibility 10.0 miles
Clouds Scattered Clouds 2000 ft
Scattered Clouds 6000 ft
Mostly Cloudy 17000 ft
Heat Index 98 °F
Dew Point 80 °F
Humidity 85%
Rainfall 1.07 in
Snow Depth Not available.
6:56 AM 7:46 PM
Last Quarter, 45% visible
METAR KPBI 251253Z VRB03KT 10SM SCT020 SCT060 BKN170 28/25 A3000 RMK AO2 RAE14 SLP159 CB DSNT N-NE E S NW P0000 T02830250 $
Pressure 30.00 in
Visibility 10.0 miles
Clouds Scattered Clouds 2000 ft
Scattered Clouds 6000 ft
Mostly Cloudy 17000 ft
Heat Index 98 °F
Dew Point 80 °F
Humidity 85%
Rainfall 1.07 in
Snow Depth Not available.
6:56 AM 7:46 PM
Last Quarter, 45% visible
METAR KPBI 251253Z VRB03KT 10SM SCT020 SCT060 BKN170 28/25 A3000 RMK AO2 RAE14 SLP159 CB DSNT N-NE E S NW P0000 T02830250 $

10-Day Weather Forecast

Almanac

Astronomy

Aug. 25, 2016 Rise Set
Actual Time
Civil Twilight
Nautical Twilight
Astronomical Twilight
Moon
Length of Visible Light
Length of Day
Tomorrow will be .
, % of the Moon is Illuminated

Today's Extremes

State Highs State Lows

Community

WunderPhotos

Upload Photos

1,934,847 photos uploaded!

WunderBlog® & News

Nearby

Air Quality

  Air Quality AQ Index Pollutant
Not available.

Snow Depth

Station Depth Elevation

Earthquake Activity

City Distance Mag. Time & Date
Minimum magnitude displayed is 2.5.

Coastal Water Temperatures

Place Temperature

Stations

Nearby Weather Stations

Station Location Temp. Windchill Dew Point Humidity Wind Precip. Elev Updated Type
                   

Watches & Warnings

There are currently no watches in effect.